Date,TemperatureHighF,TemperatureAvgF,TemperatureLowF,DewpointHighF,DewpointAvgF,DewpointLowF,HumidityHigh,HumidityAvg,HumidityLow,PressureMaxIn,PressureMinIn,WindSpeedMaxMPH,WindSpeedAvgMPH,GustSpeedMaxMPH,PrecipitationSumIn
2013-1-1,37,36,36,37,36,36,99,99,99,30.27,30.21,4,2,8,0.01
2013-1-2,47,32,23,31,25,22,99,75,46,30.46,30.35,4,1,7,0.00
2013-1-3,47,38,18,34,30,18,99,72,53,30.53,30.42,7,2,11,0.00
2013-1-4,50,32,20,35,27,20,99,84,45,30.64,30.56,4,1,7,0.00
2013-1-5,52,40,24,38,33,23,99,78,53,30.57,30.40,4,1,7,0.00
2013-1-6,49,36,23,42,34,22,99,91,69,30.59,30.35,9,2,14,0.00
2013-1-7,60,33,19,37,28,19,99,84,34,30.66,30.42,4,1,8,0.00
2013-1-8,63,44,26,42,36,26,99,77,42,30.50,30.38,5,1,10,0.00
2013-1-9,59,51,48,54,49,42,99,92,78,30.63,30.42,5,2,9,0.00
2013-1-10,65,57,47,64,56,47,99,99,99,30.61,30.10,12,4,17,0.34
2013-1-11,72,61,55,65,57,54,99,88,59,30.21,30.03,12,3,24,0.64
2013-1-12,70,66,58,70,66,58,99,99,96,30.18,29.95,10,3,18,0.00
2013-1-13,69,43,27,69,43,27,99,99,94,30.46,29.94,12,5,19,1.80
2013-1-14,34,27,23,30,26,23,99,96,82,30.62,30.46,10,4,14,0.00
2013-1-15,32,27,23,32,26,22,99,99,98,30.49,30.29,11,5,16,0.00
2013-1-16,34,31,30,34,31,30,99,99,99,30.33,30.22,4,1,7,0.01
2013-1-17,52,34,29,40,32,29,99,93,63,30.64,30.29,14,4,17,0.00
2013-1-18,55,36,22,36,28,21,99,76,41,30.75,30.50,6,1,11,0.00
2013-1-19,38,37,36,32,32,31,85,81,76,30.51,30.49,3,2,7,0.00
2013-1-20,60,34,25,34,23,20,84,66,25,30.45,30.37,5,2,10,0.00
2013-1-21,40,28,21,25,18,11,99,69,38,30.51,30.38,10,3,17,0.00
2013-1-22,35,24,15,12,7,0,74,50,26,30.64,30.50,9,2,14,0.00
2013-1-23,54,34,17,34,23,9,99,67,35,30.57,30.31,6,1,11,0.00
2013-1-24,42,30,21,32,16,6,99,58,29,30.72,30.41,11,5,19,0.00
2013-1-25,37,30,26,36,28,9,99,91,43,30.47,30.28,6,1,12,0.05
2013-1-26,55,40,29,41,33,28,99,77,44,30.54,30.48,6,2,11,0.02
2013-1-27,48,38,28,47,38,27,99,99,99,30.53,30.33,5,2,12,0.07
2013-1-28,62,55,46,61,54,45,99,96,80,30.35,30.26,8,3,14,0.35
2013-1-29,70,63,55,68,62,55,99,98,91,30.26,29.69,13,4,26,0.00
2013-1-30,71,50,33,69,48,28,99,93,73,30.09,29.61,14,5,27,1.05
2013-1-31,47,36,22,37,28,20,99,76,47,30.46,30.09,11,3,21,0.01
2013-2-1,36,23,10,23,16,8,97,75,45,30.71,30.46,6,1,9,0.00
2013-2-2,44,30,25,36,27,22,99,88,58,30.51,30.28,5,2,9,0.00
2013-2-3,44,34,30,38,34,30,99,97,77,30.31,30.18,8,2,18,0.01
2013-2-6,51,45,43,36,35,33,76,66,54,30.34,30.28,3,1,8,0.00
2013-2-7,74,56,42,54,46,36,99,70,42,30.29,30.05,7,2,15,0.13
2013-2-8,52,42,33,52,40,32,99,94,76,30.54,30.07,14,7,21,0.32
2013-2-9,57,46,32,38,35,31,98,67,47,30.56,30.28,6,2,14,0.00
2013-2-10,59,52,45,57,48,36,99,88,60,30.29,29.92,17,4,30,0.40
2013-2-11,58,48,35,57,38,32,99,70,38,30.35,30.06,8,2,13,0.00
2013-2-12,59,42,29,40,34,28,99,76,42,30.35,30.02,7,1,10,0.00
2013-2-13,48,39,32,43,38,32,99,95,76,30.16,29.95,11,3,17,0.11
2013-2-14,65,47,32,45,39,32,99,77,40,30.19,30.12,8,2,14,0.01
2013-2-15,55,40,25,42,33,22,99,80,49,30.40,30.19,11,3,17,0.00
2013-2-16,43,29,21,29,20,11,99,71,30,30.39,30.32,11,2,17,0.00
2013-2-17,52,34,17,29,22,14,99,64,28,30.46,30.30,4,1,9,0.00
2013-2-18,67,49,35,50,38,24,99,68,30,30.30,29.93,14,5,25,0.44
2013-2-19,50,40,27,50,30,19,99,71,31,30.45,29.99,10,4,20,0.00
2013-2-20,36,28,20,23,20,17,92,75,48,30.55,30.43,7,2,10,0.00
2013-2-21,44,33,23,39,28,21,99,83,47,30.46,30.02,14,4,21,0.86
2013-2-22,58,44,34,48,42,34,99,93,65,30.23,30.01,8,2,14,0.01
2013-2-23,58,39,30,38,32,29,99,80,44,30.24,30.12,6,2,11,0.00
2013-2-24,65,41,24,34,29,24,99,69,26,30.34,30.19,7,1,11,0.00
2013-2-25,68,43,36,45,31,29,79,66,26,30.22,29.72,9,4,15,0.00
2013-2-26,53,46,38,53,45,38,99,97,81,29.86,29.55,11,4,18,0.70
2013-2-27,40,38,34,39,37,34,99,97,85,30.06,29.86,8,4,17,0.01
2013-2-28,41,36,33,37,34,32,99,94,81,30.24,30.05,7,2,14,0.00
2013-3-1,43,35,32,42,34,31,99,99,92,30.27,30.20,8,2,12,0.11
2013-3-2,35,31,28,34,31,28,99,97,88,30.36,30.22,10,2,14,0.01
2013-3-3,50,35,19,28,23,16,99,67,28,30.37,30.27,6,2,11,0.00
2013-3-4,60,46,35,42,31,23,75,55,34,30.30,30.00,10,3,17,0.00
2013-3-5,53,42,32,53,40,27,99,95,74,30.20,29.90,15,4,26,0.43
2013-3-6,41,35,31,34,31,29,97,87,71,30.51,30.19,12,6,21,0.00
2013-3-7,55,36,29,37,32,28,99,85,46,30.59,30.50,7,2,10,0.00
2013-3-8,65,43,25,39,32,25,99,68,27,30.62,30.45,8,2,14,0.00
2013-3-9,69,52,39,42,38,34,87,60,32,30.45,30.16,7,2,11,0.00
2013-3-10,73,60,54,58,46,39,99,63,38,30.18,29.91,13,4,22,0.58
2013-3-11,56,45,38,55,43,35,99,94,76,30.18,29.93,9,3,19,0.94
2013-3-12,57,43,30,37,33,26,99,70,31,30.34,30.17,8,2,13,0.00
2013-3-13,46,37,24,35,27,22,93,70,45,30.60,30.33,11,4,18,0.00
2013-3-14,53,34,20,38,29,20,99,84,36,30.60,30.35,6,1,10,0.02
2013-3-15,79,56,33,55,45,33,99,71,36,30.35,29.98,9,2,16,0.01
2013-3-16,78,63,46,57,52,45,98,69,47,30.17,29.95,13,5,21,0.00
2013-3-17,46,43,42,45,43,42,99,99,97,30.20,29.92,13,4,18,0.43
2013-3-18,59,48,36,59,47,36,99,99,90,30.17,29.84,17,3,27,0.74
2013-3-19,62,44,30,44,28,4,99,62,15,30.39,30.17,10,2,14,0.00
2013-3-20,51,36,23,38,28,18,99,73,49,30.37,30.25,13,3,20,0.00
2013-3-21,51,33,18,25,21,17,98,64,27,30.29,30.15,9,2,15,0.00
2013-3-22,45,38,31,31,26,21,70,62,51,30.23,30.15,6,2,10,0.00
2013-3-23,65,49,40,49,39,30,99,69,41,30.19,29.92,8,3,14,0.17
2013-3-24,51,42,34,51,42,34,99,99,97,29.93,29.59,11,4,26,0.41
2013-3-25,41,34,31,37,34,31,99,98,81,30.32,29.88,11,4,22,0.02
2013-3-26,43,36,28,37,32,27,99,88,67,30.53,30.31,7,2,12,0.02
2013-3-27,57,40,23,40,30,23,99,70,36,30.59,30.48,8,1,11,0.00
2013-3-28,71,50,34,43,36,31,92,62,27,30.58,30.45,6,1,10,0.00
2013-3-29,62,50,44,55,46,36,99,89,62,30.48,30.35,5,1,9,0.21
2013-3-30,58,50,46,53,49,46,99,96,79,30.39,30.08,6,1,11,0.34
2013-3-31,66,55,49,59,52,48,99,92,63,30.14,30.05,6,1,9,0.04
2013-4-1,64,50,38,51,40,30,99,72,46,30.37,30.08,10,3,17,0.00
2013-4-2,60,44,33,33,27,18,86,56,24,30.49,30.36,8,2,12,0.00
2013-4-3,37,37,37,24,24,24,60,59,58,30.46,30.45,3,2,5,0.00
2013-4-4,37,37,37,24,24,24,59,59,59,30.46,30.46,2,2,4,0.00
2013-4-5,46,32,21,33,25,21,99,77,46,30.31,30.13,9,2,13,0.00
2013-4-6,51,38,20,38,33,20,99,85,41,30.31,29.94,4,2,8,0.02
2013-4-7,80,70,59,60,55,49,81,59,42,29.92,29.74,7,2,12,0.08
2013-4-8,82,67,58,64,58,53,89,73,46,29.88,29.78,10,3,19,0.00
2013-4-9,81,70,62,70,66,57,99,85,66,29.97,29.83,8,2,13,0.00
2013-4-10,87,75,66,70,67,61,99,76,51,29.88,29.62,9,3,16,0.00
2013-4-11,74,62,50,66,60,50,99,95,66,29.66,29.47,11,2,21,1.45
2013-4-12,63,51,36,50,44,36,99,79,52,29.93,29.61,11,3,18,0.00
2013-4-13,76,56,34,49,43,34,99,67,32,30.01,29.87,5,1,9,0.00
2013-4-14,79,62,50,57,50,44,93,67,35,29.88,29.72,11,3,18,0.00
2013-4-15,84,70,53,67,62,53,99,78,49,29.87,29.75,6,2,12,0.00
2013-4-16,85,73,65,76,70,64,99,91,69,29.99,29.83,6,2,11,0.14
2013-4-17,91,77,66,77,70,66,99,80,49,30.01,29.78,5,2,10,0.00
2013-4-18,86,75,52,73,68,52,99,81,59,29.79,29.48,11,4,22,0.66
2013-4-19,52,44,36,52,40,36,99,86,60,30.00,29.53,9,3,18,0.27
2013-4-20,68,50,31,51,38,30,99,68,29,30.23,29.99,8,1,11,0.00
2013-4-21,75,56,38,46,37,26,87,54,20,30.32,30.15,8,2,14,0.00
2013-4-22,80,62,46,54,46,38,82,58,32,30.18,29.96,7,1,14,0.00
2013-4-23,78,66,54,62,57,50,93,75,52,30.01,29.78,7,2,14,0.00
2013-4-24,67,49,36,64,47,36,99,94,71,30.20,29.74,11,3,20,0.85
2013-4-25,72,52,32,48,42,31,99,72,35,30.28,30.17,6,1,11,0.00
2013-4-26,62,51,44,55,48,41,99,88,51,30.36,30.17,5,1,10,0.38
2013-4-27,61,55,50,61,55,49,99,99,99,30.23,29.80,6,2,12,1.46
2013-4-28,65,59,52,62,58,51,99,97,86,29.86,29.76,5,2,11,0.06
2013-4-29,83,65,52,65,57,51,99,79,38,29.93,29.79,4,1,8,0.00
2013-4-30,87,70,52,67,59,52,99,73,36,29.91,29.81,5,1,9,0.00
2013-5-1,90,72,56,72,64,56,99,78,39,30.02,29.91,7,1,11,0.00
2013-5-2,87,71,59,66,64,59,99,80,46,30.06,29.93,5,1,8,0.00
2013-5-3,72,64,46,66,61,45,99,92,50,29.95,29.85,8,2,13,0.09
2013-5-4,57,47,43,50,46,43,99,95,73,29.99,29.89,4,1,10,0.74
2013-5-5,66,54,46,60,52,45,99,96,70,29.96,29.83,5,2,8,0.05
2013-5-6,79,60,52,67,56,52,99,89,45,29.94,29.80,8,2,12,0.25
2013-5-7,82,64,51,67,59,51,99,87,52,30.02,29.92,6,1,11,0.01
2013-5-8,89,70,54,70,61,54,99,78,41,30.07,29.96,4,1,8,0.00
2013-5-9,85,72,58,74,65,58,99,81,51,30.08,29.95,6,1,12,0.07
2013-5-10,79,67,62,74,66,62,99,97,83,29.99,29.86,9,1,19,1.25
2013-5-11,76,62,53,62,58,44,99,87,52,30.11,29.94,11,2,17,0.00
2013-5-12,71,56,39,49,41,32,99,62,25,30.22,30.11,8,2,13,0.00
2013-5-13,79,59,38,57,43,31,99,62,18,30.28,30.15,5,1,11,0.00
2013-5-14,90,71,52,66,58,47,86,65,39,30.17,29.94,7,3,14,0.00
2013-5-15,74,74,74,65,65,65,73,73,73,29.99,29.99,4,4,7,0.00
2013-5-16,74,74,74,65,65,65,73,73,73,29.99,29.99,4,4,7,0.00
2013-5-17,74,74,74,65,65,65,73,73,73,29.99,29.99,4,4,7,0.00
2013-5-18,74,74,74,65,65,65,73,73,73,29.99,29.99,4,4,7,0.00
2013-5-19,74,74,74,65,65,65,73,73,73,29.99,29.99,4,4,7,0.00
2013-5-20,74,74,74,65,65,65,73,73,73,29.99,29.99,4,4,7,0.00
2013-5-21,74,74,74,65,65,65,73,73,73,29.99,29.99,4,4,7,0.00
2013-6-1,74,70,67,74,70,67,99,99,98,29.93,29.76,5,1,11,0.00
2013-6-2,86,73,61,75,68,61,99,87,54,29.96,29.88,7,1,11,0.02
2013-6-3,85,67,56,71,62,56,99,87,46,30.04,29.94,7,1,10,0.00
2013-6-4,92,73,54,69,63,54,99,73,40,30.06,29.96,4,1,8,0.00
2013-6-5,97,79,64,76,71,64,99,79,41,29.98,29.80,6,1,8,0.00
2013-6-6,89,74,65,79,71,64,99,90,60,29.81,29.74,8,1,17,0.78
2013-6-7,86,74,66,76,70,65,99,88,67,29.81,29.75,7,2,11,0.00
2013-6-8,89,74,61,73,66,61,99,79,46,29.99,29.85,4,1,8,0.02
2013-6-9,88,70,62,78,68,61,99,96,62,30.01,29.82,4,1,9,1.15
2013-6-10,88,74,66,81,70,65,99,89,55,29.92,29.81,8,1,14,0.09
2013-6-11,91,74,62,79,68,61,99,86,54,30.01,29.92,3,0,8,0.00
2013-6-12,95,86,76,83,80,76,99,82,64,30.02,29.83,7,2,14,0.01
2013-6-13,82,75,68,80,72,63,98,91,77,29.96,29.83,5,2,11,0.00
2013-6-14,90,76,57,67,63,57,99,68,41,30.05,29.94,9,2,16,0.00
2013-6-15,95,82,61,73,69,60,99,67,41,30.10,29.97,4,1,9,0.00
2013-6-16,91,81,69,78,74,69,99,81,61,30.04,29.94,5,1,11,0.00
2013-6-17,96,79,68,81,74,68,99,87,52,29.96,29.85,9,1,21,1.04
2013-6-18,95,79,66,75,72,65,99,80,47,29.96,29.83,6,1,11,0.24
2013-6-19,71,68,65,70,67,65,99,99,99,29.98,29.93,2,0,4,0.00
2013-6-20,100,84,68,77,72,67,99,71,35,30.13,30.06,3,1,5,0.00
2013-6-21,97,78,68,78,73,68,99,87,51,30.18,30.09,5,1,11,0.00
2013-6-22,95,82,69,79,74,69,99,78,48,30.17,30.04,4,1,8,0.00
2013-6-23,94,81,68,79,74,68,99,80,51,30.13,30.01,5,1,11,0.00
2013-6-24,75,74,73,75,74,73,99,99,99,30.08,30.04,2,0,4,0.00
2013-6-25,94,83,70,82,78,70,99,85,66,30.06,29.91,4,1,8,0.00
2013-6-26,94,86,73,82,79,72,99,80,66,29.96,29.75,17,3,24,0.04
2013-6-27,98,85,69,85,76,69,99,77,44,29.85,29.79,8,1,13,0.01
2013-6-28,94,82,71,81,74,66,99,79,46,29.82,29.65,7,1,15,0.00
2013-6-29,90,77,63,73,67,62,99,75,46,29.70,29.61,11,1,18,0.35
2013-6-30,90,70,60,76,67,60,99,91,55,29.81,29.67,8,1,11,0.06
2013-7-1,80,70,65,75,69,64,99,97,81,29.89,29.76,7,1,11,0.05
2013-7-2,84,72,64,73,69,64,99,89,64,30.02,29.85,6,1,11,0.00
2013-7-3,91,75,60,75,68,60,99,80,49,30.10,30.01,4,1,8,0.00
2013-7-4,80,70,66,76,70,66,99,98,85,30.08,30.02,4,1,8,0.02
2013-7-5,91,76,66,79,73,65,99,91,63,30.11,30.02,5,1,10,0.64
2013-7-6,86,74,66,80,72,65,99,94,75,30.10,30.00,4,1,10,0.92
2013-7-7,94,74,64,82,71,63,99,92,60,30.11,30.02,4,1,7,0.05
2013-7-8,99,82,68,82,75,68,99,81,50,30.14,30.04,2,0,5,0.00
2013-7-9,97,84,70,83,78,70,99,83,58,30.11,29.98,3,1,6,0.00
2013-7-10,100,87,73,85,80,73,99,81,57,30.01,29.85,5,2,9,0.00
2013-7-11,92,80,68,84,73,65,99,83,51,29.99,29.92,9,2,19,0.00
2013-7-12,91,77,64,70,65,60,99,72,39,30.06,29.97,8,3,14,0.00
2013-7-13,95,76,60,72,66,60,99,76,40,30.05,29.98,7,1,11,0.00
2013-7-14,95,81,69,80,75,69,99,84,56,30.14,30.02,7,1,17,0.00
2013-7-15,96,82,73,81,76,73,99,83,53,30.25,30.13,5,1,11,0.00
2013-7-16,104,86,71,80,76,71,99,75,38,30.32,30.21,4,1,8,0.00
2013-7-17,101,88,72,84,78,72,99,77,48,30.31,30.16,8,1,14,0.00
2013-7-18,97,81,73,88,79,72,99,93,68,30.19,30.06,11,1,21,0.77
2013-7-19,97,83,70,82,78,70,99,85,55,30.07,29.92,3,0,8,0.01
2013-7-20,96,83,73,82,78,73,99,84,60,29.97,29.82,6,1,11,0.00
2013-7-21,100,79,71,84,75,71,99,90,50,29.98,29.85,10,1,21,0.81
2013-7-22,88,77,71,83,76,71,99,95,77,29.90,29.82,5,1,10,1.25
2013-7-23,95,82,68,82,76,68,99,85,52,29.91,29.77,15,2,24,0.13
2013-7-24,91,76,64,76,70,64,99,82,53,29.97,29.78,7,2,14,0.02
2013-7-25,93,75,59,74,66,59,99,78,42,30.06,29.94,6,1,11,0.00
2013-7-26,90,74,58,76,67,58,99,81,50,30.06,29.96,4,0,8,0.00
2013-7-27,89,76,64,77,71,64,99,86,60,29.98,29.86,8,1,14,0.01
2013-7-28,88,71,53,69,60,52,99,73,34,30.08,29.96,6,0,8,0.00
2013-7-29,89,74,57,72,65,56,99,77,45,30.17,30.07,2,0,5,0.00
2013-7-30,76,70,66,76,70,65,99,98,85,30.17,30.05,4,0,9,0.52
2013-7-31,93,78,69,82,75,69,99,92,65,30.06,29.92,7,1,11,0.00
2013-8-1,94,77,66,78,71,65,99,83,53,30.04,29.95,8,1,12,0.00
2013-8-2,94,77,61,77,69,60,99,80,42,30.04,29.96,3,0,7,0.00
2013-8-3,88,76,71,83,75,70,99,96,78,30.05,29.94,6,0,10,0.18
2013-8-4,92,78,68,74,68,62,99,77,40,30.13,30.03,7,1,12,0.00
2013-8-5,88,72,60,75,68,60,99,88,51,30.09,29.93,3,0,8,0.13
2013-8-6,93,77,69,84,76,69,99,97,70,29.96,29.88,3,0,7,0.05
2013-8-7,93,80,72,84,77,72,99,94,71,30.68,29.88,3,0,6,0.01
2013-8-8,94,79,73,86,78,73,99,97,73,29.96,29.88,6,0,10,0.13
2013-8-9,75,74,73,74,74,73,99,99,99,29.95,29.91,2,0,5,0.00
2013-8-10,93,78,72,82,76,72,99,95,66,30.10,30.01,2,0,3,0.35
2013-8-11,96,83,73,83,77,72,99,86,58,30.11,30.03,2,0,5,0.01
2013-8-12,89,78,71,82,76,71,99,97,78,30.07,29.90,3,0,7,0.60
2013-8-13,89,78,68,80,74,67,99,89,62,30.03,29.91,5,1,11,0.00
2013-8-14,83,65,56,67,60,56,99,85,45,30.12,30.03,4,0,11,0.00
2013-8-15,91,71,54,67,61,54,99,76,40,30.11,30.01,2,0,13,0.00
2013-8-16,86,72,61,75,69,60,99,89,65,30.09,30.01,2,0,7,0.06
2013-8-17,90,72,65,79,70,65,99,95,62,30.13,30.04,4,0,11,1.48
2013-8-18,90,73,64,79,70,63,99,90,60,30.15,30.05,0,0,2,0.00
2013-8-19,96,77,64,81,72,63,99,86,52,30.12,30.02,0,0,3,0.00
2013-8-20,101,78,68,82,73,67,99,88,51,30.11,30.03,8,0,14,0.69
2013-8-21,98,81,69,85,75,69,99,85,51,30.14,30.05,2,0,6,0.01
2013-8-22,99,83,70,84,76,70,99,81,45,30.13,30.01,3,0,8,0.00
2013-8-23,101,79,70,85,75,70,99,91,53,30.08,30.00,8,0,12,0.15
2013-8-24,100,81,67,82,73,67,99,80,46,30.19,30.07,6,0,11,0.00
2013-8-25,95,79,67,80,74,67,99,86,58,30.29,30.18,4,0,9,0.00
2013-8-26,96,80,66,80,74,66,99,85,57,30.27,30.11,4,0,8,0.00
2013-8-27,95,80,69,81,76,69,99,87,61,30.14,30.02,6,0,10,0.00
2013-8-28,98,82,68,80,75,68,99,82,47,30.06,29.98,4,0,10,0.00
2013-8-29,101,84,71,84,78,71,99,83,50,30.03,29.93,4,0,9,0.00
2013-8-30,100,85,73,84,78,73,99,82,49,29.98,29.86,4,0,11,0.00
2013-8-31,100,85,73,85,79,73,99,84,54,29.91,29.77,4,0,10,0.00
2013-9-1,90,76,67,81,74,67,99,93,65,29.92,29.80,14,0,23,0.63
2013-9-2,97,79,68,84,75,68,99,89,58,29.91,29.81,0,0,1,0.00
2013-9-3,95,79,64,78,70,63,99,77,43,30.04,29.90,0,0,2,0.00
2013-9-4,97,78,59,74,66,58,99,73,36,30.14,30.03,0,0,3,0.00
2013-9-5,95,76,58,73,67,57,99,79,43,30.19,30.11,0,0,0,0.00
2013-9-6,98,78,60,76,68,60,99,77,38,30.16,30.06,0,0,1,0.00
2013-9-7,96,92,80,77,74,70,88,57,47,30.08,29.96,0,0,4,0.01
2013-9-8,101,88,76,80,78,75,99,75,45,30.00,29.96,1,0,2,0.00
2013-9-9,75,74,73,75,74,72,99,99,99,29.98,29.96,0,0,2,0.12
2013-9-10,98,82,73,82,77,72,99,88,60,30.14,30.03,2,0,5,0.00
2013-9-11,98,77,69,82,74,69,99,92,58,30.17,30.07,3,0,8,1.03
2013-9-12,96,78,68,82,75,68,99,90,60,30.06,29.92,9,0,13,0.12
2013-9-13,84,70,56,67,60,55,99,73,45,30.05,29.96,8,0,17,0.01
2013-9-14,86,64,49,61,55,49,99,77,35,30.13,30.03,4,0,11,0.00
2013-9-15,89,68,50,69,60,50,99,79,36,30.10,30.03,0,0,4,0.00
2013-9-16,86,70,60,74,67,60,99,91,66,30.17,30.06,0,0,5,0.22
2013-9-17,98,74,61,73,68,61,99,83,42,30.20,30.07,1,0,6,0.00
2013-9-18,90,75,66,79,72,66,99,92,67,30.14,30.03,1,0,8,0.00
2013-9-19,94,78,67,78,73,67,99,88,57,30.11,29.96,3,0,10,0.00
2013-9-20,88,74,68,78,72,68,99,94,68,29.98,29.80,7,0,11,1.38
2013-9-21,82,66,53,68,61,53,99,86,48,29.89,29.76,8,0,13,0.18
2013-9-22,86,65,51,63,57,51,99,79,38,29.97,29.87,0,0,3,0.00
2013-9-23,92,68,50,66,59,50,99,80,35,30.01,29.92,0,0,1,0.00
2013-9-24,91,72,58,74,65,58,99,83,45,29.97,29.81,0,0,1,0.01
2013-9-25,92,73,63,76,69,63,99,89,51,29.87,29.79,0,0,1,0.00
2013-9-26,95,72,60,77,66,60,99,84,43,30.02,29.86,0,0,1,0.00
2013-9-27,96,71,53,72,62,53,99,79,34,30.12,30.02,0,0,1,0.00
2013-9-28,88,72,61,69,63,59,99,78,38,30.15,30.04,0,0,8,0.00
2013-9-29,66,64,61,66,63,60,99,99,97,30.07,29.98,0,0,3,0.51
2013-9-30,80,69,63,72,67,63,99,94,72,30.01,29.94,1,0,7,0.01
2013-10-1,85,73,64,77,71,64,99,93,72,30.07,29.99,0,0,0,0.00
2013-10-2,84,74,67,81,74,67,99,98,88,30.11,30.03,0,0,2,0.31
2013-10-3,92,76,68,77,71,68,99,86,51,30.07,29.97,0,0,8,0.00
2013-10-4,92,75,65,80,73,65,99,92,64,30.08,29.98,0,0,4,0.00
2013-10-5,88,75,68,80,74,68,99,95,72,30.03,29.85,2,0,6,0.05
2013-10-6,73,61,49,72,60,48,99,98,87,29.94,29.81,7,0,14,1.64
2013-10-7,76,56,43,59,51,43,99,86,46,30.13,29.91,6,0,11,0.00
2013-10-8,81,59,45,59,52,45,99,81,38,30.19,30.09,2,0,11,0.00
2013-10-9,95,66,50,70,60,49,99,85,37,30.17,30.08,0,0,1,0.00
2013-10-10,92,69,58,74,64,58,99,87,42,30.15,30.02,0,0,0,0.00
2013-10-11,92,68,54,69,61,54,99,84,39,30.08,29.98,0,0,1,0.00
2013-10-12,85,68,56,71,64,55,99,89,58,30.12,30.00,0,0,1,0.00
2013-10-13,86,70,59,72,64,52,99,82,60,30.26,30.11,2,0,15,0.24
2013-10-14,86,66,53,70,60,52,99,83,52,30.25,30.09,1,0,5,0.00
2013-10-15,75,67,62,71,66,61,99,96,82,30.09,29.93,2,0,10,0.02
2013-10-16,67,60,51,67,59,51,99,99,99,30.00,29.92,5,0,11,0.14
2013-10-17,70,55,45,60,52,45,99,91,64,30.01,29.91,2,0,7,0.11
2013-10-18,75,55,42,61,50,41,99,86,46,30.07,29.93,0,0,1,0.00
2013-10-19,61,50,39,54,49,38,99,95,65,30.06,29.86,6,0,12,0.09
2013-10-20,71,50,36,53,44,36,99,83,42,30.10,29.99,0,0,2,0.00
2013-10-21,74,55,38,58,49,37,99,83,47,30.05,29.94,2,0,9,0.08
2013-10-22,70,53,39,52,45,39,99,79,37,30.06,29.83,4,0,8,0.06
2013-10-23,58,46,39,49,42,38,99,86,51,30.11,29.85,4,0,14,0.01
2013-10-24,55,43,30,45,40,29,99,88,54,30.36,30.09,0,0,2,0.00
2013-10-25,61,38,24,36,30,24,99,79,31,30.50,30.30,0,0,2,0.00
2013-10-26,61,45,29,48,40,29,99,84,54,30.30,30.03,0,0,4,0.00
2013-10-27,75,56,41,56,51,41,99,86,48,30.10,30.01,0,0,1,0.00
2013-10-28,79,60,51,66,58,51,99,94,57,30.24,30.05,0,0,1,0.01
2013-10-29,68,59,50,66,58,49,99,99,94,30.28,30.11,0,0,1,0.00
2013-10-30,81,69,62,72,66,62,99,91,72,30.16,29.99,1,0,4,0.15
2013-10-31,70,66,62,70,65,62,99,98,87,29.99,29.49,6,0,19,0.73
2013-11-1,74,61,47,61,53,46,99,78,43,29.83,29.65,7,0,12,0.01
2013-11-2,64,48,38,56,47,37,99,96,65,30.17,29.82,4,0,11,0.05
2013-11-3,68,46,32,53,39,32,99,82,33,30.32,30.16,0,0,2,0.00
2013-11-4,62,52,42,52,47,42,99,84,60,30.34,30.22,0,0,3,0.00
2013-11-5,74,59,51,54,50,46,83,71,44,30.35,30.16,0,0,2,0.00
2013-11-6,59,57,56,54,50,48,85,76,67,30.17,30.07,0,0,7,0.00
2013-11-7,59,44,33,43,37,32,99,80,39,30.35,30.17,0,0,1,0.01
2013-11-8,64,45,31,45,35,30,99,72,33,30.39,30.21,0,0,0,0.00
2013-11-9,67,51,37,43,38,32,90,65,36,30.23,30.13,0,0,0,0.00
2013-11-10,68,48,35,48,36,29,99,70,28,30.36,30.22,0,0,0,0.00
2013-11-11,76,52,32,49,36,26,99,64,16,30.30,30.14,0,0,0,0.00
2013-11-12,50,36,26,48,28,24,99,75,45,30.64,30.23,3,0,13,0.00
2013-11-13,55,36,21,35,25,20,99,72,29,30.69,30.46,0,0,1,0.00
2013-11-14,61,48,24,30,22,13,98,46,17,30.41,30.22,0,0,0,0.00
2013-11-15,52,46,38,51,39,24,99,79,55,30.17,30.04,0,0,0,0.01
2013-11-16,65,59,52,65,59,51,99,99,99,30.06,29.86,0,0,1,0.01
2013-11-17,72,63,51,71,62,45,99,95,79,29.92,29.60,0,0,3,1.35
2013-11-18,64,50,37,52,42,33,99,75,39,30.26,29.92,0,0,2,0.00
2013-11-19,61,42,34,38,34,30,98,75,32,30.32,30.19,0,0,0,0.00
2013-11-20,66,46,30,43,37,30,99,74,38,30.22,30.11,0,0,0,0.00
2013-11-21,72,56,46,59,52,39,99,86,62,30.24,30.14,0,0,1,0.09
2013-11-22,59,51,42,58,51,42,99,99,99,30.38,30.15,0,0,3,0.32
2013-11-23,50,37,22,42,30,10,99,79,25,30.60,30.35,0,0,2,0.00
2013-11-24,42,27,17,24,19,16,99,74,38,30.69,30.44,0,0,1,0.00
2013-11-25,43,33,28,35,27,19,99,79,50,30.45,30.16,0,0,0,0.00
2013-11-26,37,35,33,37,34,29,99,98,85,30.17,29.92,0,0,1,0.11
2013-11-27,34,25,15,30,18,13,97,74,46,30.36,30.02,0,0,2,0.00
2013-11-28,48,29,15,24,20,15,99,74,36,30.47,30.30,0,0,1,0.00
2013-11-29,61,37,21,37,29,21,99,78,34,30.57,30.42,0,0,1,0.00
2013-11-30,62,44,28,39,30,23,99,63,24,30.42,30.18,0,0,1,0.00
2013-12-1,48,46,45,39,36,32,73,69,59,30.19,30.14,0,0,0,0.00
2013-12-4,68,68,68,68,68,67,99,99,99,29.79,29.79,0,0,1,0.00
2013-12-5,60,37,32,59,37,32,99,99,99,30.14,29.85,0,0,2,0.09
2013-12-9,27,27,26,27,26,26,99,99,98,30.23,30.18,0,0,0,0.01
2013-12-10,42,29,22,33,26,22,99,92,65,30.38,30.17,0,0,0,0.11
2013-12-11,46,30,20,38,28,20,99,91,68,30.56,30.36,0,0,0,0.06
2013-12-12,41,25,11,24,18,11,99,77,35,30.59,30.37,0,0,0,0.00
2013-12-13,44,34,20,36,27,19,99,76,53,30.36,29.98,0,0,0,0.04
2013-12-14,44,36,34,44,36,33,99,99,99,30.03,29.76,0,0,1,0.56
2013-12-15,34,32,27,33,31,27,99,99,96,30.21,30.03,0,0,1,0.00
2013-12-16,58,42,28,44,38,28,99,85,57,30.16,30.01,0,0,1,0.00
2013-12-17,52,40,27,45,37,27,99,90,60,30.27,30.05,0,0,1,0.00
2013-12-18,55,38,22,35,26,22,99,67,28,30.33,30.09,0,0,1,0.00
2013-12-19,64,51,36,54,45,32,98,80,63,30.14,29.95,0,0,1,0.00
2013-12-20,64,60,55,64,59,50,99,95,79,29.95,29.82,0,0,1,0.07
2013-12-21,74,67,60,72,66,60,99,98,91,29.85,29.47,0,0,2,1.68
2013-12-22,61,49,36,61,48,36,99,99,99,30.16,29.58,0,0,2,0.08
2013-12-23,35,34,32,35,33,29,99,97,86,30.41,30.18,0,0,2,0.00
2013-12-24,29,23,17,25,20,16,96,89,63,30.58,30.46,0,0,1,0.00
2013-12-29,43,36,30,42,35,30,99,99,97,30.12,29.96,0,0,2,0.20
2013-12-30,33,28,25,28,27,25,99,93,79,30.27,30.17,0,0,1,0.00
2013-12-31,23,23,23,22,22,22,99,99,99,30.29,30.28,0,0,1,0.00
2014-1-2,37,35,32,37,34,31,99,99,99,29.94,29.90,0,0,1,0.11